sensor_id;sensor_type;location;lat;lon;timestamp;pressure;altitude;pressure_sealevel;temperature;humidity
72024;BME280;59889;50.700;5.440;2023-01-25T00:01:59;102007.97;;;18.26;32.36
72024;BME280;59889;50.700;5.440;2023-01-25T00:04:24;102004.05;;;18.01;32.35
72024;BME280;59889;50.700;5.440;2023-01-25T00:06:49;102000.91;;;17.78;32.39
72024;BME280;59889;50.700;5.440;2023-01-25T00:09:14;101998.56;;;18.37;32.24
72024;BME280;59889;50.700;5.440;2023-01-25T00:11:39;101999.26;;;18.10;32.27
72024;BME280;59889;50.700;5.440;2023-01-25T00:14:05;102000.51;;;18.23;32.39
72024;BME280;59889;50.700;5.440;2023-01-25T00:16:30;101997.55;;;18.01;32.38
72024;BME280;59889;50.700;5.440;2023-01-25T00:18:54;101996.24;;;18.28;32.36
72024;BME280;59889;50.700;5.440;2023-01-25T00:21:22;101997.97;;;18.08;32.31
72024;BME280;59889;50.700;5.440;2023-01-25T00:23:45;101994.79;;;18.08;32.31
72024;BME280;59889;50.700;5.440;2023-01-25T00:26:10;101995.01;;;18.00;32.41
72024;BME280;59889;50.700;5.440;2023-01-25T00:28:35;101991.71;;;18.04;32.34
72024;BME280;59889;50.700;5.440;2023-01-25T00:31:01;101987.69;;;18.02;32.39
72024;BME280;59889;50.700;5.440;2023-01-25T00:33:32;101988.28;;;17.83;32.31
72024;BME280;59889;50.700;5.440;2023-01-25T00:35:50;101986.57;;;18.06;32.32
72024;BME280;59889;50.700;5.440;2023-01-25T00:38:24;101984.16;;;18.34;32.28
72024;BME280;59889;50.700;5.440;2023-01-25T00:40:41;101980.70;;;18.42;32.21
72024;BME280;59889;50.700;5.440;2023-01-25T00:43:06;101976.70;;;18.41;32.22
72024;BME280;59889;50.700;5.440;2023-01-25T00:45:31;101974.49;;;17.83;32.33
72024;BME280;59889;50.700;5.440;2023-01-25T00:47:56;101973.14;;;18.10;32.28
72024;BME280;59889;50.700;5.440;2023-01-25T00:50:21;101972.45;;;18.33;32.31
72024;BME280;59889;50.700;5.440;2023-01-25T00:52:46;101967.33;;;18.24;32.42
72024;BME280;59889;50.700;5.440;2023-01-25T00:55:11;101963.57;;;18.06;32.35
72024;BME280;59889;50.700;5.440;2023-01-25T00:57:36;101962.86;;;17.92;32.50
72024;BME280;59889;50.700;5.440;2023-01-25T01:00:03;101962.75;;;17.79;32.39
72024;BME280;59889;50.700;5.440;2023-01-25T01:02:29;101961.74;;;17.75;32.41
72024;BME280;59889;50.700;5.440;2023-01-25T01:04:52;101960.78;;;18.35;32.29
72024;BME280;59889;50.700;5.440;2023-01-25T01:07:17;101961.77;;;18.27;32.38
72024;BME280;59889;50.700;5.440;2023-01-25T01:09:43;101960.59;;;18.33;32.34
72024;BME280;59889;50.700;5.440;2023-01-25T01:12:08;101962.22;;;17.97;32.45
72024;BME280;59889;50.700;5.440;2023-01-25T01:14:33;101961.87;;;18.01;32.40
72024;BME280;59889;50.700;5.440;2023-01-25T01:16:58;101961.24;;;18.35;32.31
72024;BME280;59889;50.700;5.440;2023-01-25T01:19:23;101959.72;;;18.27;32.38
72024;BME280;59889;50.700;5.440;2023-01-25T01:21:48;101955.91;;;17.98;32.43
72024;BME280;59889;50.700;5.440;2023-01-25T01:24:13;101951.68;;;18.35;32.29
72024;BME280;59889;50.700;5.440;2023-01-25T01:26:38;101950.65;;;18.04;32.39
72024;BME280;59889;50.700;5.440;2023-01-25T01:29:04;101952.56;;;18.15;32.25
72024;BME280;59889;50.700;5.440;2023-01-25T01:31:29;101948.30;;;18.23;32.41
72024;BME280;59889;50.700;5.440;2023-01-25T01:33:55;101946.88;;;17.93;32.23
72024;BME280;59889;50.700;5.440;2023-01-25T01:36:24;101946.19;;;18.35;32.30
72024;BME280;59889;50.700;5.440;2023-01-25T01:38:45;101948.21;;;18.01;32.42
72024;BME280;59889;50.700;5.440;2023-01-25T01:41:10;101948.66;;;18.12;32.57
72024;BME280;59889;50.700;5.440;2023-01-25T01:43:34;101948.53;;;17.92;32.52
72024;BME280;59889;50.700;5.440;2023-01-25T01:46:01;101948.52;;;17.91;32.55
72024;BME280;59889;50.700;5.440;2023-01-25T01:48:31;101944.77;;;18.26;32.40
72024;BME280;59889;50.700;5.440;2023-01-25T01:50:52;101942.69;;;18.21;32.49
72024;BME280;59889;50.700;5.440;2023-01-25T01:53:15;101942.87;;;18.21;32.50
72024;BME280;59889;50.700;5.440;2023-01-25T01:55:40;101944.29;;;18.09;32.35
72024;BME280;59889;50.700;5.440;2023-01-25T01:58:06;101945.02;;;18.26;32.43
72024;BME280;59889;50.700;5.440;2023-01-25T02:00:34;101942.70;;;17.73;32.47
72024;BME280;59889;50.700;5.440;2023-01-25T02:02:56;101943.43;;;18.11;32.60
72024;BME280;59889;50.700;5.440;2023-01-25T02:05:26;101945.61;;;17.98;32.47
72024;BME280;59889;50.700;5.440;2023-01-25T02:07:48;101948.31;;;18.19;32.50
72024;BME280;59889;50.700;5.440;2023-01-25T02:10:12;101947.44;;;18.06;32.38
72024;BME280;59889;50.700;5.440;2023-01-25T02:12:37;101950.25;;;17.91;32.54
72024;BME280;59889;50.700;5.440;2023-01-25T02:15:02;101951.66;;;18.23;32.46
72024;BME280;59889;50.700;5.440;2023-01-25T02:17:28;101955.46;;;17.94;32.52
72024;BME280;59889;50.700;5.440;2023-01-25T02:19:55;101951.86;;;18.26;32.43
72024;BME280;59889;50.700;5.440;2023-01-25T02:22:19;101950.29;;;18.22;32.49
72024;BME280;59889;50.700;5.440;2023-01-25T02:24:46;101950.07;;;18.20;32.52
72024;BME280;59889;50.700;5.440;2023-01-25T02:27:07;101952.50;;;18.00;32.46
72024;BME280;59889;50.700;5.440;2023-01-25T02:29:32;101952.59;;;17.98;32.50
72024;BME280;59889;50.700;5.440;2023-01-25T02:31:58;101951.77;;;18.26;32.43
72024;BME280;59889;50.700;5.440;2023-01-25T02:34:22;101949.23;;;18.06;32.39
72024;BME280;59889;50.700;5.440;2023-01-25T02:36:47;101946.00;;;17.95;32.53
72024;BME280;59889;50.700;5.440;2023-01-25T02:39:15;101943.15;;;18.08;32.38
72024;BME280;59889;50.700;5.440;2023-01-25T02:41:39;101942.16;;;18.07;32.39
72024;BME280;59889;50.700;5.440;2023-01-25T02:44:06;101942.88;;;18.27;32.43
72024;BME280;59889;50.700;5.440;2023-01-25T02:46:30;101943.03;;;17.89;32.58
72024;BME280;59889;50.700;5.440;2023-01-25T02:48:54;101941.72;;;17.89;32.59
72024;BME280;59889;50.700;5.440;2023-01-25T02:51:19;101940.63;;;18.18;32.55
72024;BME280;59889;50.700;5.440;2023-01-25T02:53:43;101938.14;;;18.20;32.51
72024;BME280;59889;50.700;5.440;2023-01-25T02:56:08;101933.42;;;18.14;32.58
72024;BME280;59889;50.700;5.440;2023-01-25T02:58:33;101932.94;;;17.92;32.57
72024;BME280;59889;50.700;5.440;2023-01-25T03:00:59;101928.45;;;18.29;32.41
72024;BME280;59889;50.700;5.440;2023-01-25T03:03:24;101929.26;;;18.21;32.51
72024;BME280;59889;50.700;5.440;2023-01-25T03:05:49;101926.32;;;17.94;32.52
72024;BME280;59889;50.700;5.440;2023-01-25T03:08:14;101924.79;;;18.27;32.43
72024;BME280;59889;50.700;5.440;2023-01-25T03:10:39;101928.28;;;18.29;32.40
72024;BME280;59889;50.700;5.440;2023-01-25T03:13:04;101925.45;;;18.00;32.49
72024;BME280;59889;50.700;5.440;2023-01-25T03:15:30;101924.93;;;18.25;32.44
72024;BME280;59889;50.700;5.440;2023-01-25T03:17:55;101925.27;;;17.92;32.56
72024;BME280;59889;50.700;5.440;2023-01-25T03:20:20;101925.16;;;18.16;32.56
72024;BME280;59889;50.700;5.440;2023-01-25T03:22:45;101924.69;;;18.24;32.46
72024;BME280;59889;50.700;5.440;2023-01-25T03:25:10;101927.06;;;18.01;32.44
72024;BME280;59889;50.700;5.440;2023-01-25T03:27:35;101928.77;;;18.27;32.41
72024;BME280;59889;50.700;5.440;2023-01-25T03:30:00;101928.48;;;18.32;32.35
72024;BME280;59889;50.700;5.440;2023-01-25T03:32:25;101927.03;;;17.90;32.59
72024;BME280;59889;50.700;5.440;2023-01-25T03:34:51;101926.17;;;17.92;32.55
72024;BME280;59889;50.700;5.440;2023-01-25T03:37:15;101927.44;;;17.93;32.55
72024;BME280;59889;50.700;5.440;2023-01-25T03:39:40;101926.27;;;18.13;32.59
72024;BME280;59889;50.700;5.440;2023-01-25T03:42:06;101928.45;;;17.94;32.54
72024;BME280;59889;50.700;5.440;2023-01-25T03:44:31;101929.50;;;17.69;32.56
72024;BME280;59889;50.700;5.440;2023-01-25T03:46:56;101928.29;;;18.15;32.57
72024;BME280;59889;50.700;5.440;2023-01-25T03:49:21;101925.51;;;18.09;32.64
72024;BME280;59889;50.700;5.440;2023-01-25T03:51:46;101924.45;;;18.24;32.47
72024;BME280;59889;50.700;5.440;2023-01-25T03:54:11;101924.94;;;18.20;32.52
72024;BME280;59889;50.700;5.440;2023-01-25T03:56:37;101925.40;;;17.84;32.67
72024;BME280;59889;50.700;5.440;2023-01-25T03:59:01;101921.55;;;18.12;32.60
72024;BME280;59889;50.700;5.440;2023-01-25T04:01:27;101917.97;;;17.72;32.51
72024;BME280;59889;50.700;5.440;2023-01-25T04:03:52;101917.77;;;18.17;32.54
72024;BME280;59889;50.700;5.440;2023-01-25T04:06:17;101915.75;;;18.17;32.56
72024;BME280;59889;50.700;5.440;2023-01-25T04:08:42;101914.81;;;18.18;32.56
72024;BME280;59889;50.700;5.440;2023-01-25T04:11:09;101908.13;;;17.96;32.49
72024;BME280;59889;50.700;5.440;2023-01-25T04:13:33;101905.95;;;17.90;32.60
72024;BME280;59889;50.700;5.440;2023-01-25T04:15:57;101905.80;;;18.16;32.56
72024;BME280;59889;50.700;5.440;2023-01-25T04:18:22;101903.04;;;17.96;32.51
72024;BME280;59889;50.700;5.440;2023-01-25T04:20:51;101902.57;;;17.92;32.56
72024;BME280;59889;50.700;5.440;2023-01-25T04:23:13;101903.12;;;17.91;32.56
72024;BME280;59889;50.700;5.440;2023-01-25T04:25:38;101901.62;;;18.11;32.62
72024;BME280;59889;50.700;5.440;2023-01-25T04:28:03;101896.97;;;18.20;32.51
72024;BME280;59889;50.700;5.440;2023-01-25T04:30:28;101897.17;;;17.80;32.69
72024;BME280;59889;50.700;5.440;2023-01-25T04:32:53;101897.81;;;17.91;32.57
72024;BME280;59889;50.700;5.440;2023-01-25T04:35:18;101895.60;;;18.21;32.49
72024;BME280;59889;50.700;5.440;2023-01-25T04:37:43;101895.34;;;18.13;32.57
72024;BME280;59889;50.700;5.440;2023-01-25T04:40:09;101894.93;;;18.15;32.56
72024;BME280;59889;50.700;5.440;2023-01-25T04:42:34;101891.28;;;17.66;32.58
72024;BME280;59889;50.700;5.440;2023-01-25T04:44:59;101890.54;;;17.92;32.57
72024;BME280;59889;50.700;5.440;2023-01-25T04:47:24;101884.45;;;18.00;32.47
72024;BME280;59889;50.700;5.440;2023-01-25T04:49:49;101886.31;;;18.17;32.55
72024;BME280;59889;50.700;5.440;2023-01-25T04:52:15;101886.80;;;17.87;32.62
72024;BME280;59889;50.700;5.440;2023-01-25T04:54:40;101885.37;;;18.09;32.64
72024;BME280;59889;50.700;5.440;2023-01-25T04:57:05;101881.41;;;18.07;32.66
72024;BME280;59889;50.700;5.440;2023-01-25T04:59:30;101877.67;;;17.64;32.62
72024;BME280;59889;50.700;5.440;2023-01-25T05:01:55;101872.54;;;18.27;32.42
72024;BME280;59889;50.700;5.440;2023-01-25T05:04:20;101870.25;;;17.94;32.52
72024;BME280;59889;50.700;5.440;2023-01-25T05:06:45;101866.54;;;18.17;32.54
72024;BME280;59889;50.700;5.440;2023-01-25T05:09:11;101865.37;;;18.11;32.61
72024;BME280;59889;50.700;5.440;2023-01-25T05:11:36;101863.50;;;18.22;32.47
72024;BME280;59889;50.700;5.440;2023-01-25T05:14:01;101861.74;;;17.85;32.62
72024;BME280;59889;50.700;5.440;2023-01-25T05:16:26;101858.86;;;17.83;32.64
72024;BME280;59889;50.700;5.440;2023-01-25T05:18:53;101857.26;;;18.15;32.56
72024;BME280;59889;50.700;5.440;2023-01-25T05:21:16;101858.47;;;17.96;32.50
72024;BME280;59889;50.700;5.440;2023-01-25T05:23:41;101860.65;;;18.18;32.53
72024;BME280;59889;50.700;5.440;2023-01-25T05:26:06;101859.43;;;17.96;32.50
72024;BME280;59889;50.700;5.440;2023-01-25T05:28:31;101860.91;;;17.88;32.58
72024;BME280;59889;50.700;5.440;2023-01-25T05:30:57;101861.78;;;18.05;32.65
72024;BME280;59889;50.700;5.440;2023-01-25T05:33:22;101862.08;;;17.66;32.56
72024;BME280;59889;50.700;5.440;2023-01-25T05:35:47;101859.45;;;17.90;32.56
72024;BME280;59889;50.700;5.440;2023-01-25T05:38:12;101858.19;;;18.06;32.65
72024;BME280;59889;50.700;5.440;2023-01-25T05:40:38;101853.77;;;17.77;32.69
72024;BME280;59889;50.700;5.440;2023-01-25T05:43:03;101850.45;;;18.15;32.56
72024;BME280;59889;50.700;5.440;2023-01-25T05:45:28;101849.15;;;17.83;32.64
72024;BME280;59889;50.700;5.440;2023-01-25T05:47:54;101852.11;;;18.19;32.50
72024;BME280;59889;50.700;5.440;2023-01-25T05:50:19;101851.67;;;18.12;32.59
72024;BME280;59889;50.700;5.440;2023-01-25T05:52:44;101850.40;;;18.02;32.69
72024;BME280;59889;50.700;5.440;2023-01-25T05:55:09;101849.44;;;18.27;32.40
72024;BME280;59889;50.700;5.440;2023-01-25T05:57:34;101847.90;;;18.05;32.37
72024;BME280;59889;50.700;5.440;2023-01-25T05:59:59;101846.08;;;18.10;32.60
72024;BME280;59889;50.700;5.440;2023-01-25T06:02:24;101844.21;;;18.00;32.43
72024;BME280;59889;50.700;5.440;2023-01-25T06:04:49;101839.51;;;18.34;32.29
72024;BME280;59889;50.700;5.440;2023-01-25T06:07:14;101838.62;;;18.21;32.38
72024;BME280;59889;50.700;5.440;2023-01-25T06:09:40;101838.27;;;17.90;32.41
72024;BME280;59889;50.700;5.440;2023-01-25T06:12:05;101840.47;;;17.87;32.40
72024;BME280;59889;50.700;5.440;2023-01-25T06:14:30;101840.46;;;17.98;32.19
72024;BME280;59889;50.700;5.440;2023-01-25T06:16:55;101839.11;;;18.00;32.15
72024;BME280;59889;50.700;5.440;2023-01-25T06:19:20;101838.52;;;17.93;32.08
72024;BME280;59889;50.700;5.440;2023-01-25T06:21:45;101835.85;;;17.94;32.07
72024;BME280;59889;50.700;5.440;2023-01-25T06:24:10;101835.72;;;17.93;32.02
72024;BME280;59889;50.700;5.440;2023-01-25T06:26:35;101840.79;;;17.96;31.94
72024;BME280;59889;50.700;5.440;2023-01-25T06:29:01;101840.48;;;17.92;32.02
72024;BME280;59889;50.700;5.440;2023-01-25T06:31:26;101840.40;;;17.92;32.01
72024;BME280;59889;50.700;5.440;2023-01-25T06:33:51;101833.39;;;18.23;31.79
72024;BME280;59889;50.700;5.440;2023-01-25T06:36:18;101834.21;;;18.19;31.90
72024;BME280;59889;50.700;5.440;2023-01-25T06:38:41;101830.73;;;18.25;31.73
72024;BME280;59889;50.700;5.440;2023-01-25T06:41:09;101830.19;;;18.07;31.67
72024;BME280;59889;50.700;5.440;2023-01-25T06:43:33;101831.30;;;17.67;31.80
72024;BME280;59889;50.700;5.440;2023-01-25T06:45:57;101830.71;;;18.23;31.75
72024;BME280;59889;50.700;5.440;2023-01-25T06:48:22;101828.61;;;18.09;31.56
72024;BME280;59889;50.700;5.440;2023-01-25T06:50:54;101828.98;;;18.03;31.68
72024;BME280;59889;50.700;5.440;2023-01-25T06:53:12;101828.24;;;17.86;31.50
72024;BME280;59889;50.700;5.440;2023-01-25T06:55:37;101831.05;;;18.24;31.53
72024;BME280;59889;50.700;5.440;2023-01-25T06:58:02;101830.94;;;17.96;31.67
72024;BME280;59889;50.700;5.440;2023-01-25T07:00:28;101826.53;;;17.87;31.42
72024;BME280;59889;50.700;5.440;2023-01-25T07:02:53;101825.71;;;17.76;31.44
72024;BME280;59889;50.700;5.440;2023-01-25T07:05:18;101825.52;;;18.05;31.44
72024;BME280;59889;50.700;5.440;2023-01-25T07:07:44;101825.83;;;17.94;31.61
72024;BME280;59889;50.700;5.440;2023-01-25T07:10:09;101827.14;;;18.02;31.40
72024;BME280;59889;50.700;5.440;2023-01-25T07:12:34;101821.68;;;18.15;31.47
72024;BME280;59889;50.700;5.440;2023-01-25T07:14:59;101820.15;;;17.96;31.43
72024;BME280;59889;50.700;5.440;2023-01-25T07:17:24;101823.25;;;18.21;31.38
72024;BME280;59889;50.700;5.440;2023-01-25T07:19:50;101822.24;;;18.02;31.42
72024;BME280;59889;50.700;5.440;2023-01-25T07:22:15;101824.36;;;18.27;31.26
72024;BME280;59889;50.700;5.440;2023-01-25T07:24:40;101825.88;;;18.02;31.41
72024;BME280;59889;50.700;5.440;2023-01-25T07:27:05;101825.91;;;17.93;31.49
72024;BME280;59889;50.700;5.440;2023-01-25T07:29:30;101824.42;;;17.76;31.28
72024;BME280;59889;50.700;5.440;2023-01-25T07:31:55;101819.42;;;18.34;31.29
72024;BME280;59889;50.700;5.440;2023-01-25T07:34:20;101821.55;;;18.11;31.06
72024;BME280;59889;50.700;5.440;2023-01-25T07:36:45;101818.56;;;18.35;31.16
72024;BME280;59889;50.700;5.440;2023-01-25T07:39:11;101823.98;;;18.03;31.18
72024;BME280;59889;50.700;5.440;2023-01-25T07:41:36;101822.64;;;18.12;31.18
72024;BME280;59889;50.700;5.440;2023-01-25T07:44:01;101825.36;;;18.19;31.06
72024;BME280;59889;50.700;5.440;2023-01-25T07:49:01;101825.37;;;18.21;28.69
72024;BME280;59889;50.700;5.440;2023-01-25T07:51:18;101827.45;;;18.04;28.80
72024;BME280;59889;50.700;5.440;2023-01-25T07:53:43;101826.79;;;18.38;29.06
72024;BME280;59889;50.700;5.440;2023-01-25T07:56:10;101830.10;;;18.17;29.44
72024;BME280;59889;50.700;5.440;2023-01-25T07:58:33;101827.85;;;17.96;29.75
72024;BME280;59889;50.700;5.440;2023-01-25T08:01:04;101827.68;;;17.97;29.90
72024;BME280;59889;50.700;5.440;2023-01-25T08:03:23;101823.99;;;17.91;30.06
72024;BME280;59889;50.700;5.440;2023-01-25T08:05:49;101823.15;;;17.74;30.46
72024;BME280;59889;50.700;5.440;2023-01-25T08:08:15;101821.22;;;17.70;30.60
72024;BME280;59889;50.700;5.440;2023-01-25T08:10:40;101822.42;;;17.65;31.08
72024;BME280;59889;50.700;5.440;2023-01-25T08:13:07;101818.61;;;18.05;31.06
72024;BME280;59889;50.700;5.440;2023-01-25T08:15:31;101816.42;;;17.39;31.12
72024;BME280;59889;50.700;5.440;2023-01-25T08:17:58;101815.99;;;17.77;31.37
72024;BME280;59889;50.700;5.440;2023-01-25T08:20:22;101818.60;;;17.73;31.65
72024;BME280;59889;50.700;5.440;2023-01-25T08:22:47;101817.58;;;17.57;31.46
72024;BME280;59889;50.700;5.440;2023-01-25T08:25:14;101820.91;;;17.77;31.50
72024;BME280;59889;50.700;5.440;2023-01-25T08:27:38;101820.22;;;17.72;31.65
72024;BME280;59889;50.700;5.440;2023-01-25T08:30:04;101819.60;;;17.56;31.65
72024;BME280;59889;50.700;5.440;2023-01-25T08:32:34;101819.83;;;17.86;31.61
72024;BME280;59889;50.700;5.440;2023-01-25T08:34:54;101824.46;;;17.87;31.66
72024;BME280;59889;50.700;5.440;2023-01-25T08:37:19;101828.73;;;17.93;31.84
72024;BME280;59889;50.700;5.440;2023-01-25T08:39:44;101827.19;;;17.74;31.93
72024;BME280;59889;50.700;5.440;2023-01-25T08:42:10;101825.66;;;17.64;32.12
72024;BME280;59889;50.700;5.440;2023-01-25T08:44:35;101820.97;;;17.91;32.15
72024;BME280;59889;50.700;5.440;2023-01-25T08:47:00;101819.15;;;17.66;32.18
72024;BME280;59889;50.700;5.440;2023-01-25T08:49:26;101818.43;;;17.53;32.37
72024;BME280;59889;50.700;5.440;2023-01-25T08:51:51;101815.53;;;17.61;32.44
72024;BME280;59889;50.700;5.440;2023-01-25T08:54:16;101810.20;;;17.63;32.42
72024;BME280;59889;50.700;5.440;2023-01-25T08:56:41;101809.63;;;17.64;32.45
72024;BME280;59889;50.700;5.440;2023-01-25T08:59:08;101806.71;;;17.90;32.47
72024;BME280;59889;50.700;5.440;2023-01-25T09:01:32;101802.04;;;17.60;32.56
72024;BME280;59889;50.700;5.440;2023-01-25T09:03:58;101800.83;;;17.52;32.68
72024;BME280;59889;50.700;5.440;2023-01-25T09:06:24;101797.82;;;17.79;32.64
72024;BME280;59889;50.700;5.440;2023-01-25T09:08:49;101794.74;;;17.50;32.67
72024;BME280;59889;50.700;5.440;2023-01-25T09:11:18;101794.94;;;17.62;32.56
72024;BME280;59889;50.700;5.440;2023-01-25T09:13:40;101793.36;;;17.51;32.67
72024;BME280;59889;50.700;5.440;2023-01-25T09:16:07;101790.46;;;17.83;32.57
72024;BME280;59889;50.700;5.440;2023-01-25T09:18:32;101789.89;;;17.52;32.64
72024;BME280;59889;50.700;5.440;2023-01-25T09:20:57;101790.57;;;17.42;32.72
72024;BME280;59889;50.700;5.440;2023-01-25T09:23:22;101791.01;;;17.81;32.56
72024;BME280;59889;50.700;5.440;2023-01-25T09:25:47;101788.10;;;17.54;32.55
72024;BME280;59889;50.700;5.440;2023-01-25T09:28:12;101787.01;;;17.63;32.54
72024;BME280;59889;50.700;5.440;2023-01-25T09:30:38;101785.46;;;17.72;32.81
72024;BME280;59889;50.700;5.440;2023-01-25T09:33:02;101788.56;;;17.53;32.81
72024;BME280;59889;50.700;5.440;2023-01-25T09:35:29;101787.83;;;17.53;32.81
72024;BME280;59889;50.700;5.440;2023-01-25T09:37:54;101782.68;;;17.48;32.88
72024;BME280;59889;50.700;5.440;2023-01-25T09:40:21;101782.82;;;17.74;32.83
72024;BME280;59889;50.700;5.440;2023-01-25T09:42:53;101781.45;;;17.71;32.87
72024;BME280;59889;50.700;5.440;2023-01-25T09:45:16;101778.15;;;17.43;32.90
72024;BME280;59889;50.700;5.440;2023-01-25T09:47:39;101775.30;;;17.46;32.86
72024;BME280;59889;50.700;5.440;2023-01-25T09:50:17;101776.60;;;17.48;32.82
72024;BME280;59889;50.700;5.440;2023-01-25T09:52:40;101777.05;;;17.47;32.83
72024;BME280;59889;50.700;5.440;2023-01-25T09:54:51;101778.49;;;17.73;32.80
72024;BME280;59889;50.700;5.440;2023-01-25T09:57:18;101778.87;;;17.84;32.69
72024;BME280;59889;50.700;5.440;2023-01-25T09:59:42;101778.03;;;17.48;32.84
72024;BME280;59889;50.700;5.440;2023-01-25T10:02:17;101776.43;;;17.72;32.80
72024;BME280;59889;50.700;5.440;2023-01-25T10:04:36;101771.96;;;17.23;32.82
72024;BME280;59889;50.700;5.440;2023-01-25T10:07:01;101767.61;;;17.42;32.86
72024;BME280;59889;50.700;5.440;2023-01-25T10:09:30;101768.89;;;17.71;32.80
72024;BME280;59889;50.700;5.440;2023-01-25T10:11:47;101768.11;;;17.77;32.76
72024;BME280;59889;50.700;5.440;2023-01-25T10:14:15;101761.28;;;17.69;32.83
72024;BME280;59889;50.700;5.440;2023-01-25T10:16:46;101761.70;;;17.50;32.79
72024;BME280;59889;50.700;5.440;2023-01-25T10:19:13;101765.13;;;17.72;32.81
72024;BME280;59889;50.700;5.440;2023-01-25T10:21:33;101764.83;;;17.54;32.71
72024;BME280;59889;50.700;5.440;2023-01-25T10:24:13;101761.40;;;17.47;32.82
72024;BME280;59889;50.700;5.440;2023-01-25T10:26:23;101763.07;;;17.49;32.79
72024;BME280;59889;50.700;5.440;2023-01-25T10:28:47;101762.93;;;17.86;32.65
72024;BME280;59889;50.700;5.440;2023-01-25T10:31:15;101762.18;;;17.47;32.80
72024;BME280;59889;50.700;5.440;2023-01-25T10:33:39;101762.71;;;17.30;32.73
72024;BME280;59889;50.700;5.440;2023-01-25T10:36:01;101761.65;;;17.45;32.83
72024;BME280;59889;50.700;5.440;2023-01-25T10:38:29;101759.06;;;17.72;32.80
72024;BME280;59889;50.700;5.440;2023-01-25T10:40:54;101755.61;;;17.51;32.75
72024;BME280;59889;50.700;5.440;2023-01-25T10:43:19;101753.51;;;17.47;32.80
72024;BME280;59889;50.700;5.440;2023-01-25T10:45:42;101752.13;;;17.49;32.77
72024;BME280;59889;50.700;5.440;2023-01-25T10:48:12;101747.94;;;17.53;32.72
72024;BME280;59889;50.700;5.440;2023-01-25T10:50:44;101742.59;;;17.36;32.88
72024;BME280;59889;50.700;5.440;2023-01-25T10:52:58;101739.81;;;17.72;32.78
72024;BME280;59889;50.700;5.440;2023-01-25T10:55:23;101736.77;;;17.47;32.84
72024;BME280;59889;50.700;5.440;2023-01-25T10:57:50;101728.96;;;17.48;32.84
72024;BME280;59889;50.700;5.440;2023-01-25T11:00:21;101722.74;;;17.55;32.79
72024;BME280;59889;50.700;5.440;2023-01-25T11:02:43;101718.06;;;17.55;32.81
72024;BME280;59889;50.700;5.440;2023-01-25T11:07:29;101711.08;;;17.53;32.81
72024;BME280;59889;50.700;5.440;2023-01-25T11:09:54;101706.22;;;17.53;32.80
72024;BME280;59889;50.700;5.440;2023-01-25T11:12:20;101696.81;;;17.40;32.90
72024;BME280;59889;50.700;5.440;2023-01-25T11:14:45;101693.46;;;17.78;32.76
72024;BME280;59889;50.700;5.440;2023-01-25T11:17:22;101690.99;;;17.50;32.83
72024;BME280;59889;50.700;5.440;2023-01-25T11:19:37;101690.18;;;17.77;32.79
72024;BME280;59889;50.700;5.440;2023-01-25T11:22:02;101685.38;;;17.50;32.83
72024;BME280;59889;50.700;5.440;2023-01-25T11:24:27;101679.92;;;17.79;32.76
72024;BME280;59889;50.700;5.440;2023-01-25T11:29:17;101671.49;;;17.54;32.77
72024;BME280;59889;50.700;5.440;2023-01-25T11:31:43;101669.08;;;17.46;32.88
72024;BME280;59889;50.700;5.440;2023-01-25T11:34:09;101666.02;;;17.78;32.79
72024;BME280;59889;50.700;5.440;2023-01-25T11:36:38;101663.49;;;17.27;32.86
72024;BME280;59889;50.700;5.440;2023-01-25T11:39:06;101659.37;;;17.48;32.91
72024;BME280;59889;50.700;5.440;2023-01-25T11:41:26;101655.03;;;17.74;32.89
72024;BME280;59889;50.700;5.440;2023-01-25T11:43:58;101649.03;;;17.78;32.84
72024;BME280;59889;50.700;5.440;2023-01-25T11:46:20;101640.61;;;17.49;32.94
72024;BME280;59889;50.700;5.440;2023-01-25T11:48:57;101636.31;;;17.57;32.88
72024;BME280;59889;50.700;5.440;2023-01-25T11:51:05;101633.21;;;17.82;32.85
72024;BME280;59889;50.700;5.440;2023-01-25T11:53:39;101626.69;;;17.52;32.30
72024;BME280;59889;50.700;5.440;2023-01-25T11:55:56;101622.44;;;17.48;32.02
72024;BME280;59889;50.700;5.440;2023-01-25T11:58:34;101618.66;;;17.61;32.28
72024;BME280;59889;50.700;5.440;2023-01-25T12:00:53;101612.60;;;17.42;32.63
72024;BME280;59889;50.700;5.440;2023-01-25T12:05:42;101604.85;;;17.75;32.70
72024;BME280;59889;50.700;5.440;2023-01-25T12:08:10;101598.52;;;17.53;32.72
72024;BME280;59889;50.700;5.440;2023-01-25T12:10:30;101592.92;;;17.46;32.79
72024;BME280;59889;50.700;5.440;2023-01-25T12:12:55;101586.69;;;17.60;32.67
72024;BME280;59889;50.700;5.440;2023-01-25T12:15:26;101578.87;;;17.46;32.82
72024;BME280;59889;50.700;5.440;2023-01-25T12:17:49;101574.16;;;17.52;32.79
72024;BME280;59889;50.700;5.440;2023-01-25T12:20:17;101564.86;;;17.30;32.75
72024;BME280;59889;50.700;5.440;2023-01-25T12:22:41;101557.49;;;17.63;32.67
72024;BME280;59889;50.700;5.440;2023-01-25T12:25:00;101551.60;;;17.53;32.77
72024;BME280;59889;50.700;5.440;2023-01-25T12:27:30;101544.01;;;17.92;32.64
72024;BME280;59889;50.700;5.440;2023-01-25T12:29:49;101536.73;;;17.58;32.75
72024;BME280;59889;50.700;5.440;2023-01-25T12:32:15;101531.19;;;17.82;32.73
72024;BME280;59889;50.700;5.440;2023-01-25T12:34:38;101525.64;;;17.52;32.81
72024;BME280;59889;50.700;5.440;2023-01-25T12:37:05;101521.94;;;17.73;32.87
72024;BME280;59889;50.700;5.440;2023-01-25T12:39:30;101511.18;;;17.63;32.94
72024;BME280;59889;50.700;5.440;2023-01-25T12:41:54;101510.95;;;17.79;32.85
72024;BME280;59889;50.700;5.440;2023-01-25T12:44:19;101503.01;;;17.45;32.95
72024;BME280;59889;50.700;5.440;2023-01-25T12:46:46;101495.72;;;17.50;32.94
72024;BME280;59889;50.700;5.440;2023-01-25T12:49:14;101483.08;;;17.67;33.07